Circle Line Brooklyn — WDE8160 — position and weather

sailwx.info

Track history (hours):
 
Tides and Currents Weather Stations Pressure Air Temp Water Temp Dewpoint Dewpoint Depression Visibility Wind Speed Wind Dir Waves Ship Positions

Circle Line Brooklyn

Owner: Circle Line Sight Seeing Yachts Inc., New York, NY. More information available from US FCC via Universal Licensing System and Coast Guard Vessel Documentation Center.

Last reported at 2014-Dec-21 22:33 UTC. Time now 2014-Dec-22 04:55 UTC.
Position N 40°45' W 074°01'.

; draft 2.4 m.

MMSI: 367402250.

Date/timePositionNaut miles runAvg speedWind from/ knotsBaromVisibWave heightAir tempDewpointWater temp
2014-Dec-21 22:33N 40°45' W 074°01'4 3.9
2014-Dec-21 21:33N 40°41' W 074°02'5 3.8
2014-Dec-21 20:14N 40°46' W 074°00'2 1.3
2014-Dec-21 18:31N 40°44' W 073°58'2 2.3
2014-Dec-21 17:34N 40°46' W 074°00'0 0.1
2014-Dec-21 16:07N 40°46' W 074°00'5 7.9
2014-Dec-21 15:31N 40°41' W 074°02'5 4.6
2014-Dec-21 14:30N 40°46' W 074°00'0 0.0
2014-Dec-20 20:04N 40°46' W 074°00'0 0.0
2014-Dec-20 19:10N 40°46' W 074°00'0 0.0
2014-Dec-20 18:19N 40°46' W 074°00'0 0.0
2014-Dec-20 17:31N 40°46' W 074°00'0 0.0
2014-Dec-20 15:31N 40°46' W 074°00'0 0.0
2014-Dec-20 14:22N 40°46' W 074°00'0 0.0
2014-Dec-20 13:31N 40°46' W 074°00'2 0.1
2014-Dec-19 22:33N 40°44' W 074°01'2 2.4
2014-Dec-19 21:33N 40°41' W 074°02'5 4.4
2014-Dec-19 20:30N 40°46' W 074°00'6 6.5
2014-Dec-19 19:30N 40°52' W 073°57'9 8.1
2014-Dec-19 18:25N 40°43' W 073°58'3 1.5
2014-Dec-19 16:17N 40°46' W 074°00'5 7.0
2014-Dec-19 15:33N 40°41' W 074°03'5 4.8
2014-Dec-19 14:31N 40°46' W 074°00'0 0.0
2014-Dec-19 13:31N 40°46' W 074°00'0 0.0
2014-Dec-19 12:31N 40°46' W 074°00'1 0.1
2014-Dec-18 22:33N 40°45' W 074°01'4 3.7
2014-Dec-18 21:33N 40°41' W 074°03'5 4.7
2014-Dec-18 20:32N 40°46' W 074°00'2 1.0
2014-Dec-18 18:33N 40°45' W 073°58'2 1.9
2014-Dec-18 17:29N 40°46' W 074°00'0 0.0
2014-Dec-18 16:32N 40°46' W 074°00'5 4.6
2014-Dec-18 15:32N 40°41' W 074°02'5 4.7
2014-Dec-18 14:33N 40°46' W 074°00'2 0.1
2014-Dec-16 22:33N 40°44' W 074°01'2 1.8
2014-Dec-16 21:33N 40°42' W 074°02'4 3.8
2014-Dec-16 20:32N 40°46' W 074°00'7 6.1
2014-Dec-16 19:28N 40°52' W 073°57'6 7.1
2014-Dec-16 18:33N 40°45' W 073°58'2 2.0
2014-Dec-16 17:33N 40°46' W 074°00'0 0.0
2014-Dec-16 16:33N 40°46' W 074°00'5 4.9
2014-Dec-16 15:33N 40°41' W 074°02'5 4.8
2014-Dec-16 14:33N 40°46' W 074°00'0 0.0
2014-Dec-16 13:30N 40°46' W 074°00'1 0.1
2014-Dec-15 22:34N 40°44' W 074°01'3 3.4
2014-Dec-15 21:33N 40°41' W 074°03'5 4.3
2014-Dec-15 20:25N 40°46' W 074°00'2 1.1
2014-Dec-15 18:33N 40°45' W 073°58'2 2.0
2014-Dec-15 17:33N 40°46' W 074°00'0 0.0
2014-Dec-15 16:16N 40°46' W 074°00'5 7.0
2014-Dec-15 15:33N 40°41' W 074°03'5 4.3
2014-Dec-15 14:23N 40°46' W 074°00'3 0.2
2014-Dec-14 22:33N 40°43' W 074°01'0 0.5
2014-Dec-14 21:33N 40°42' W 074°02'4 3.6
2014-Dec-14 20:32N 40°46' W 074°00'2 1.0
2014-Dec-14 18:32N 40°45' W 073°57'2 1.7
2014-Dec-14 17:20N 40°46' W 074°00'0 0.0
2014-Dec-14 16:32N 40°46' W 074°00'5 5.1
2014-Dec-14 15:34N 40°41' W 074°03'5 4.6
2014-Dec-14 14:29N 40°46' W 074°00'0 0.0
2014-Dec-13 20:29N 40°46' W 074°00'3 1.6
2014-Dec-13 18:33N 40°43' W 073°58'3 3.0
2014-Dec-13 17:32N 40°46' W 074°00'0 0.0
2014-Dec-13 16:29N 40°46' W 074°00'4 4.2
2014-Dec-13 15:33N 40°42' W 074°01'1 1.4
2014-Dec-13 14:33N 40°43' W 074°01'3 2.6
2014-Dec-13 13:31N 40°46' W 074°00'2 0.1
2014-Dec-12 22:33N 40°44' W 074°01'3 2.7
2014-Dec-12 21:33N 40°41' W 074°02'5 4.4
2014-Dec-12 20:28N 40°46' W 074°00'2 1.0
2014-Dec-12 18:34N 40°45' W 073°58'2 1.6
2014-Dec-12 17:18N 40°46' W 074°00'0 0.0
2014-Dec-12 16:33N 40°46' W 074°00'5 4.6
2014-Dec-12 15:33N 40°42' W 074°02'3 0.2
2014-Dec-11 22:33N 40°44' W 074°01'  
Track history (hours):
 
Tides and Currents Weather Stations Pressure Air Temp Water Temp Dewpoint Dewpoint Depression Visibility Wind Speed Wind Dir Waves Ship Positions

Circle Line Brooklyn

Owner: Circle Line Sight Seeing Yachts Inc., New York, NY. More information available from US FCC via Universal Licensing System and Coast Guard Vessel Documentation Center.

Last reported at 2014-Dec-21 22:33 UTC. Time now 2014-Dec-22 04:55 UTC.
Position N 40°45' W 074°01'.

; draft 2.4 m.

MMSI: 367402250.

Date/timePositionNaut miles runAvg speedWind from/ knotsBaromVisibWave heightAir tempDewpointWater temp
2014-Dec-21 22:33N 40°45' W 074°01'4 3.9
2014-Dec-21 21:33N 40°41' W 074°02'5 3.8
2014-Dec-21 20:14N 40°46' W 074°00'2 1.3
2014-Dec-21 18:31N 40°44' W 073°58'2 2.3
2014-Dec-21 17:34N 40°46' W 074°00'0 0.1
2014-Dec-21 16:07N 40°46' W 074°00'5 7.9
2014-Dec-21 15:31N 40°41' W 074°02'5 4.6
2014-Dec-21 14:30N 40°46' W 074°00'0 0.0
2014-Dec-20 20:04N 40°46' W 074°00'0 0.0
2014-Dec-20 19:10N 40°46' W 074°00'0 0.0
2014-Dec-20 18:19N 40°46' W 074°00'0 0.0
2014-Dec-20 17:31N 40°46' W 074°00'0 0.0
2014-Dec-20 15:31N 40°46' W 074°00'0 0.0
2014-Dec-20 14:22N 40°46' W 074°00'0 0.0
2014-Dec-20 13:31N 40°46' W 074°00'2 0.1
2014-Dec-19 22:33N 40°44' W 074°01'2 2.4
2014-Dec-19 21:33N 40°41' W 074°02'5 4.4
2014-Dec-19 20:30N 40°46' W 074°00'6 6.5
2014-Dec-19 19:30N 40°52' W 073°57'9 8.1
2014-Dec-19 18:25N 40°43' W 073°58'3 1.5
2014-Dec-19 16:17N 40°46' W 074°00'5 7.0
2014-Dec-19 15:33N 40°41' W 074°03'5 4.8
2014-Dec-19 14:31N 40°46' W 074°00'0 0.0
2014-Dec-19 13:31N 40°46' W 074°00'0 0.0
2014-Dec-19 12:31N 40°46' W 074°00'1 0.1
2014-Dec-18 22:33N 40°45' W 074°01'4 3.7
2014-Dec-18 21:33N 40°41' W 074°03'5 4.7
2014-Dec-18 20:32N 40°46' W 074°00'2 1.0
2014-Dec-18 18:33N 40°45' W 073°58'2 1.9
2014-Dec-18 17:29N 40°46' W 074°00'0 0.0
2014-Dec-18 16:32N 40°46' W 074°00'5 4.6
2014-Dec-18 15:32N 40°41' W 074°02'5 4.7
2014-Dec-18 14:33N 40°46' W 074°00'2 0.1
2014-Dec-16 22:33N 40°44' W 074°01'2 1.8
2014-Dec-16 21:33N 40°42' W 074°02'4 3.8
2014-Dec-16 20:32N 40°46' W 074°00'7 6.1
2014-Dec-16 19:28N 40°52' W 073°57'6 7.1
2014-Dec-16 18:33N 40°45' W 073°58'2 2.0
2014-Dec-16 17:33N 40°46' W 074°00'0 0.0
2014-Dec-16 16:33N 40°46' W 074°00'5 4.9
2014-Dec-16 15:33N 40°41' W 074°02'5 4.8
2014-Dec-16 14:33N 40°46' W 074°00'0 0.0
2014-Dec-16 13:30N 40°46' W 074°00'1 0.1
2014-Dec-15 22:34N 40°44' W 074°01'3 3.4
2014-Dec-15 21:33N 40°41' W 074°03'5 4.3
2014-Dec-15 20:25N 40°46' W 074°00'2 1.1
2014-Dec-15 18:33N 40°45' W 073°58'2 2.0
2014-Dec-15 17:33N 40°46' W 074°00'0 0.0
2014-Dec-15 16:16N 40°46' W 074°00'5 7.0
2014-Dec-15 15:33N 40°41' W 074°03'5 4.3
2014-Dec-15 14:23N 40°46' W 074°00'3 0.2
2014-Dec-14 22:33N 40°43' W 074°01'0 0.5
2014-Dec-14 21:33N 40°42' W 074°02'4 3.6
2014-Dec-14 20:32N 40°46' W 074°00'2 1.0
2014-Dec-14 18:32N 40°45' W 073°57'2 1.7
2014-Dec-14 17:20N 40°46' W 074°00'0 0.0
2014-Dec-14 16:32N 40°46' W 074°00'5 5.1
2014-Dec-14 15:34N 40°41' W 074°03'5 4.6
2014-Dec-14 14:29N 40°46' W 074°00'0 0.0
2014-Dec-13 20:29N 40°46' W 074°00'3 1.6
2014-Dec-13 18:33N 40°43' W 073°58'3 3.0
2014-Dec-13 17:32N 40°46' W 074°00'0 0.0
2014-Dec-13 16:29N 40°46' W 074°00'4 4.2
2014-Dec-13 15:33N 40°42' W 074°01'1 1.4
2014-Dec-13 14:33N 40°43' W 074°01'3 2.6
2014-Dec-13 13:31N 40°46' W 074°00'2 0.1
2014-Dec-12 22:33N 40°44' W 074°01'3 2.7
2014-Dec-12 21:33N 40°41' W 074°02'5 4.4
2014-Dec-12 20:28N 40°46' W 074°00'2 1.0
2014-Dec-12 18:34N 40°45' W 073°58'2 1.6
2014-Dec-12 17:18N 40°46' W 074°00'0 0.0
2014-Dec-12 16:33N 40°46' W 074°00'5 4.6
2014-Dec-12 15:33N 40°42' W 074°02'3 0.2
2014-Dec-11 22:33N 40°44' W 074°01'  

Dump ship's entire track history